Time;durP1;ratioP1;P1;durP2;ratioP2;P2;SDS_P1;SDS_P2;PMS_P1;PMS_P2;Temp;Humidity;BMP_temperature;BMP_pressure;BME280_temperature;BME280_humidity;BME280_pressure;Samples;Min_cycle;Max_cycle;Signal;HPM_P1;HPM_P2
2022/08/25 00:01:36;;;;;;;6.25;3.67;;;22.40;63.40;;;;;;4966704;28;20022;-83
2022/08/25 00:04:03;;;;;;;8.48;5.75;;;22.40;62.70;;;;;;4958948;28;20095;-82
2022/08/25 00:06:28;;;;;;;11.88;5.35;;;22.30;66.80;;;;;;4981324;28;20027;-82
2022/08/25 00:08:58;;;;;;;6.20;4.85;;;22.20;64.50;;;;;;4962068;28;20072;-83
2022/08/25 00:11:24;;;;;;;6.95;4.40;;;22.10;63.40;;;;;;4953683;28;20118;-82
2022/08/25 00:13:52;;;;;;;7.25;4.10;;;22.10;64.70;;;;;;4979783;28;20110;-83
2022/08/25 00:16:19;;;;;;;5.00;3.58;;;22.10;61.80;;;;;;4968955;28;20053;-83
2022/08/25 00:18:45;;;;;;;4.97;3.78;;;21.90;63.00;;;;;;4980522;28;20031;-83
2022/08/25 00:21:12;;;;;;;6.63;4.47;;;21.70;63.70;;;;;;4978110;28;20034;-83
2022/08/25 00:23:37;;;;;;;4.75;3.85;;;21.70;62.80;;;;;;4954783;28;20117;-82
2022/08/25 00:26:03;;;;;;;6.15;3.70;;;21.60;63.90;;;;;;4981565;28;20137;-82
2022/08/25 00:28:29;;;;;;;7.25;3.70;;;21.50;64.40;;;;;;4979234;28;20053;-83
2022/08/25 00:30:55;;;;;;;7.15;4.32;;;21.60;65.00;;;;;;4979607;28;20157;-83
2022/08/25 00:33:21;;;;;;;6.95;3.90;;;21.70;63.10;;;;;;4964834;28;20038;-83
2022/08/25 00:35:47;;;;;;;8.60;3.42;;;21.70;64.90;;;;;;4951785;28;20038;-83
2022/08/25 00:38:12;;;;;;;5.18;4.00;;;21.60;63.50;;;;;;4958918;28;20076;-83
2022/08/25 00:40:41;;;;;;;6.63;3.50;;;21.50;65.50;;;;;;4970538;28;20124;-83
2022/08/25 00:43:08;;;;;;;5.45;4.00;;;21.50;66.00;;;;;;4965752;28;20026;-83
2022/08/25 00:45:34;;;;;;;9.32;4.05;;;21.50;64.70;;;;;;4985373;28;20037;-83
2022/08/25 00:48:00;;;;;;;6.68;4.00;;;21.40;66.30;;;;;;4969307;28;20052;-83
2022/08/25 00:50:27;;;;;;;6.30;3.30;;;21.40;64.90;;;;;;4970156;28;20041;-83
2022/08/25 00:52:54;;;;;;;5.43;3.38;;;21.40;65.00;;;;;;4981111;28;20084;-81
2022/08/25 00:55:22;;;;;;;6.32;4.10;;;21.50;64.50;;;;;;4957354;28;20765;-82
2022/08/25 00:58:01;;;;;;;7.10;3.78;;;21.40;67.40;;;;;;4968146;28;20447;-81
2022/08/25 01:00:29;;;;;;;12.48;6.95;;;21.40;64.10;;;;;;4972604;28;20105;-81
2022/08/25 01:02:56;;;;;;;6.75;3.85;;;21.30;66.20;;;;;;4980294;28;20082;-81
2022/08/25 01:05:22;;;;;;;15.40;9.80;;;21.10;65.60;;;;;;4968692;28;20040;-82
2022/08/25 01:07:49;;;;;;;10.48;6.25;;;21.10;65.80;;;;;;4958043;28;20121;-81
2022/08/25 01:10:15;;;;;;;10.10;5.18;;;21.10;67.90;;;;;;4956263;28;20049;-82
2022/08/25 01:12:41;;;;;;;3.88;3.30;;;21.10;66.40;;;;;;4982616;28;20029;-81
2022/08/25 01:15:08;;;;;;;8.38;4.22;;;21.10;65.90;;;;;;4981008;28;20160;-80
2022/08/25 01:17:56;;;;;;;8.43;5.35;;;21.10;66.30;;;;;;4968500;28;20062;-81
2022/08/25 01:20:23;;;;;;;5.78;3.40;;;21.10;64.40;;;;;;4954608;28;20358;-81
2022/08/25 01:22:49;;;;;;;5.15;4.43;;;21.10;66.40;;;;;;4971351;28;20057;-81
2022/08/25 01:25:43;;;;;;;4.22;3.22;;;21.00;65.90;;;;;;4950779;28;20065;-81
2022/08/25 01:28:09;;;;;;;6.50;3.50;;;21.00;65.40;;;;;;4950924;28;20034;-82
2022/08/25 01:30:35;;;;;;;9.38;3.53;;;21.00;66.10;;;;;;4989657;28;20482;-81
2022/08/25 01:33:07;;;;;;;6.75;4.22;;;21.00;65.40;;;;;;4971932;28;20026;-81
2022/08/25 01:35:33;;;;;;;4.40;3.30;;;20.90;66.70;;;;;;4968762;28;20041;-81
2022/08/25 01:38:00;;;;;;;5.72;3.92;;;21.00;66.00;;;;;;4985527;28;20403;-81
2022/08/25 01:40:25;;;;;;;4.43;3.28;;;20.90;66.90;;;;;;4971619;28;20462;-81
2022/08/25 01:43:06;;;;;;;5.40;3.60;;;20.90;66.10;;;;;;4954575;28;20113;-81
2022/08/25 01:45:33;;;;;;;8.40;3.33;;;20.90;65.80;;;;;;5002330;28;20068;-81
2022/08/25 01:47:59;;;;;;;8.55;3.95;;;20.80;65.50;;;;;;4968508;28;20042;-81
2022/08/25 01:50:24;;;;;;;3.88;2.72;;;20.80;65.20;;;;;;4967090;28;20031;-81
2022/08/25 01:53:14;;;;;;;7.22;3.25;;;20.70;66.20;;;;;;4958595;28;20836;-82
2022/08/25 01:55:51;;;;;;;3.90;3.42;;;20.70;66.20;;;;;;4990580;28;20041;-82
2022/08/25 01:58:31;;;;;;;6.05;3.45;;;20.60;66.60;;;;;;4990724;28;20026;-83
2022/08/25 02:01:00;;;;;;;7.75;3.33;;;20.80;66.40;;;;;;4964670;28;20037;-82
2022/08/25 02:03:26;;;;;;;5.38;4.30;;;20.80;65.90;;;;;;4984901;28;20082;-79
2022/08/25 02:05:52;;;;;;;4.72;3.75;;;20.70;66.60;;;;;;4954303;28;20030;-82
2022/08/25 02:08:18;;;;;;;6.82;3.72;;;20.50;66.90;;;;;;4980424;28;20097;-83
2022/08/25 02:10:44;;;;;;;3.58;3.28;;;20.50;66.60;;;;;;4967988;28;20464;-80
2022/08/25 02:13:10;;;;;;;6.43;3.10;;;20.50;66.10;;;;;;4954666;28;20034;-83
2022/08/25 02:15:40;;;;;;;3.92;3.17;;;20.50;65.50;;;;;;4966611;28;20110;-83
2022/08/25 02:18:06;;;;;;;5.97;3.17;;;20.40;68.10;;;;;;4954284;28;20033;-81
2022/08/25 02:20:31;;;;;;;3.67;3.00;;;20.40;68.50;;;;;;4970748;28;20095;-81
2022/08/25 02:22:57;;;;;;;7.20;3.22;;;20.40;67.70;;;;;;4970016;28;20848;-81
2022/08/25 02:25:22;;;;;;;4.60;3.28;;;20.40;68.00;;;;;;4968500;28;20873;-81
2022/08/25 02:27:48;;;;;;;8.23;3.58;;;20.40;68.50;;;;;;4955543;28;20022;-81
2022/08/25 02:30:14;;;;;;;9.82;3.63;;;20.30;69.40;;;;;;4970769;28;20042;-81
2022/08/25 02:32:39;;;;;;;6.85;3.58;;;20.20;68.40;;;;;;4983750;28;20091;-81
2022/08/25 02:35:06;;;;;;;4.95;3.85;;;20.20;68.20;;;;;;4958715;28;20078;-81
2022/08/25 02:37:31;;;;;;;7.32;3.33;;;20.10;67.50;;;;;;4971020;28;20141;-81
2022/08/25 02:39:58;;;;;;;6.28;3.72;;;20.10;69.30;;;;;;4968493;28;20074;-80
2022/08/25 02:42:23;;;;;;;7.80;4.30;;;20.10;69.70;;;;;;4984458;28;20086;-81
2022/08/25 02:44:49;;;;;;;6.47;4.40;;;20.00;70.50;;;;;;4955469;28;20052;-81
2022/08/25 02:47:15;;;;;;;7.25;3.53;;;20.00;69.40;;;;;;4986178;28;20025;-81
2022/08/25 02:49:41;;;;;;;7.68;3.90;;;19.90;71.60;;;;;;4981342;28;20097;-81
2022/08/25 02:52:07;;;;;;;4.38;3.67;;;19.80;69.00;;;;;;4971982;28;20034;-81
2022/08/25 02:54:32;;;;;;;4.40;3.88;;;19.70;68.40;;;;;;4967147;28;20037;-81
2022/08/25 02:56:58;;;;;;;9.05;3.40;;;19.70;67.70;;;;;;4968208;28;20557;-80
2022/08/25 02:59:24;;;;;;;5.22;4.07;;;19.60;68.90;;;;;;4986498;28;20037;-81
2022/08/25 03:01:49;;;;;;;4.38;3.72;;;19.70;68.00;;;;;;4966099;28;20041;-80
2022/08/25 03:04:15;;;;;;;6.13;4.20;;;19.60;69.10;;;;;;4972771;28;20444;-81
2022/08/25 03:06:41;;;;;;;6.63;3.85;;;19.70;68.30;;;;;;4966780;28;20494;-81
2022/08/25 03:09:06;;;;;;;7.03;4.07;;;19.70;69.40;;;;;;4983160;28;20034;-81
2022/08/25 03:11:32;;;;;;;6.32;3.35;;;19.70;68.80;;;;;;4965528;28;20061;-80
2022/08/25 03:13:58;;;;;;;6.90;4.43;;;19.70;66.50;;;;;;4969006;28;20141;-80
2022/08/25 03:16:23;;;;;;;11.85;4.47;;;19.60;70.70;;;;;;4970873;28;20470;-80
2022/08/25 03:18:49;;;;;;;6.55;3.90;;;19.60;69.80;;;;;;4976007;28;20552;-80
2022/08/25 03:21:15;;;;;;;9.40;4.95;;;19.50;71.50;;;;;;4973820;28;20041;-80
2022/08/25 03:23:40;;;;;;;6.07;4.03;;;19.40;72.40;;;;;;4958183;28;20096;-80
2022/08/25 03:28:50;;;;;;;4.38;3.97;;;19.20;71.90;;;;;;4991005;28;20032;-80
2022/08/25 03:31:16;;;;;;;6.82;3.95;;;19.20;71.90;;;;;;4971270;28;22300;-81
2022/08/25 03:33:41;;;;;;;3.55;3.25;;;19.30;67.70;;;;;;4992855;28;20022;-80
2022/08/25 03:36:07;;;;;;;7.10;4.13;;;19.40;65.00;;;;;;4989734;28;20033;-81
2022/08/25 03:38:33;;;;;;;6.57;3.95;;;19.40;66.10;;;;;;4982506;28;20115;-81
2022/08/25 03:40:58;;;;;;;7.00;4.15;;;19.40;65.40;;;;;;4992956;28;20104;-80
2022/08/25 03:43:24;;;;;;;6.38;4.55;;;19.40;66.70;;;;;;4992442;28;20406;-81
2022/08/25 03:45:49;;;;;;;6.07;4.18;;;19.20;66.20;;;;;;4963645;28;20038;-80
2022/08/25 03:48:16;;;;;;;7.30;5.03;;;19.30;66.70;;;;;;4992799;28;20034;-81
2022/08/25 03:50:45;;;;;;;6.63;5.20;;;19.20;68.60;;;;;;4980432;28;20493;-80
2022/08/25 03:53:11;;;;;;;5.80;4.88;;;19.20;66.40;;;;;;4977472;28;20090;-80
2022/08/25 03:55:36;;;;;;;4.18;3.80;;;19.20;68.60;;;;;;4981486;28;20065;-81
2022/08/25 03:58:02;;;;;;;7.72;4.93;;;19.00;69.40;;;;;;4985881;28;20048;-80
2022/08/25 04:00:27;;;;;;;6.32;4.78;;;18.90;70.10;;;;;;4986998;28;20183;-81
2022/08/25 04:02:53;;;;;;;10.23;5.05;;;19.00;69.40;;;;;;4983107;28;20035;-81
2022/08/25 04:05:19;;;;;;;8.35;5.65;;;18.90;70.70;;;;;;4975859;28;20034;-80
2022/08/25 04:07:44;;;;;;;7.35;4.97;;;18.80;72.70;;;;;;5002344;28;20528;-80
2022/08/25 04:10:11;;;;;;;8.65;5.13;;;18.80;75.10;;;;;;4977004;28;20105;-79
2022/08/25 04:12:36;;;;;;;7.75;5.75;;;18.80;68.90;;;;;;4969466;28;20044;-80
2022/08/25 04:15:06;;;;;;;7.63;5.63;;;18.80;75.00;;;;;;4989437;28;20124;-81
2022/08/25 04:17:31;;;;;;;9.35;5.55;;;18.60;75.10;;;;;;4977437;28;20394;-80
2022/08/25 04:19:57;;;;;;;9.82;6.50;;;18.70;74.80;;;;;;4959578;28;20060;-81
2022/08/25 04:22:23;;;;;;;7.25;5.13;;;18.50;76.50;;;;;;4974245;28;20395;-81
2022/08/25 04:24:48;;;;;;;7.55;5.22;;;18.50;77.00;;;;;;4978645;28;20064;-82
2022/08/25 04:27:14;;;;;;;6.78;5.28;;;18.50;76.60;;;;;;4975563;28;20038;-81
2022/08/25 04:29:40;;;;;;;7.20;5.63;;;18.40;76.50;;;;;;4992691;28;20091;-81
2022/08/25 04:32:05;;;;;;;9.45;5.47;;;18.50;75.80;;;;;;4965376;28;20030;-81
2022/08/25 04:34:31;;;;;;;7.03;5.95;;;18.50;72.40;;;;;;4979325;28;20158;-81
2022/08/25 04:36:58;;;;;;;6.32;5.07;;;18.50;72.80;;;;;;4967233;28;20030;-81
2022/08/25 04:39:24;;;;;;;7.25;5.60;;;18.60;71.50;;;;;;4983486;28;20045;-80
2022/08/25 04:41:49;;;;;;;7.25;5.55;;;18.60;69.70;;;;;;5000258;28;20026;-81
2022/08/25 04:44:15;;;;;;;4.13;3.78;;;18.60;68.90;;;;;;5003999;28;20022;-81
2022/08/25 04:46:41;;;;;;;7.00;5.30;;;18.50;68.10;;;;;;4983607;28;20037;-81
2022/08/25 04:49:06;;;;;;;5.85;4.72;;;18.50;68.80;;;;;;4962948;28;20042;-82
2022/08/25 04:51:39;;;;;;;8.65;4.65;;;18.40;67.40;;;;;;4987344;28;20033;-81
2022/08/25 04:54:22;;;;;;;10.85;6.63;;;18.50;67.20;;;;;;4969296;28;20041;-81
2022/08/25 04:56:48;;;;;;;7.15;6.43;;;18.50;70.30;;;;;;5000828;28;20097;-82
2022/08/25 04:59:14;;;;;;;8.00;5.68;;;18.40;74.80;;;;;;4980775;28;20094;-80
2022/08/25 05:01:41;;;;;;;10.45;6.28;;;18.40;70.80;;;;;;4986212;28;20432;-82
2022/08/25 05:04:07;;;;;;;8.82;5.93;;;18.30;71.40;;;;;;4974983;28;20112;-82
2022/08/25 05:06:33;;;;;;;6.32;5.65;;;18.30;74.40;;;;;;4986416;28;20557;-82
2022/08/25 05:09:00;;;;;;;7.38;5.60;;;18.30;76.10;;;;;;4989061;28;20044;-81
2022/08/25 05:11:26;;;;;;;7.95;5.80;;;18.30;77.20;;;;;;4959643;28;20089;-81
2022/08/25 05:13:52;;;;;;;6.45;5.25;;;18.40;78.60;;;;;;4971885;28;20038;-82
2022/08/25 05:16:19;;;;;;;6.68;5.80;;;18.50;78.20;;;;;;4970008;28;22541;-82
2022/08/25 05:18:44;;;;;;;14.15;6.72;;;18.50;79.80;;;;;;4991745;28;20094;-82
2022/08/25 05:21:12;;;;;;;8.20;5.55;;;18.60;72.70;;;;;;4274302;28;10000079;-81
2022/08/25 05:23:38;;;;;;;6.82;5.40;;;18.70;78.80;;;;;;4972176;28;20033;-81
2022/08/25 05:26:14;;;;;;;9.38;5.47;;;18.80;74.70;;;;;;4954836;28;20106;-81
2022/08/25 05:28:40;;;;;;;6.65;4.60;;;18.90;78.30;;;;;;4979130;28;20025;-80
2022/08/25 05:31:07;;;;;;;7.80;5.75;;;18.90;72.30;;;;;;4960672;28;20076;-82
2022/08/25 05:33:33;;;;;;;6.78;5.60;;;19.10;77.20;;;;;;4988521;28;20379;-81
2022/08/25 05:35:59;;;;;;;8.45;5.47;;;19.20;71.80;;;;;;4974632;28;20098;-81
2022/08/25 05:38:25;;;;;;;13.82;5.97;;;19.30;79.30;;;;;;4973583;28;20038;-82
2022/08/25 05:41:06;;;;;;;9.82;5.63;;;19.30;72.50;;;;;;4981154;28;20532;-82
2022/08/25 05:43:32;;;;;;;9.35;5.65;;;19.50;74.70;;;;;;4983190;28;20030;-81
2022/08/25 05:45:57;;;;;;;7.25;5.82;;;19.60;72.50;;;;;;4968553;28;20406;-82
2022/08/25 05:48:23;;;;;;;11.20;6.10;;;19.60;75.70;;;;;;4969726;28;20166;-81
2022/08/25 05:50:53;;;;;;;7.00;5.00;;;19.70;76.20;;;;;;4971818;28;20041;-82
2022/08/25 05:53:19;;;;;;;8.07;5.57;;;19.90;76.60;;;;;;4971859;28;20045;-83
2022/08/25 05:55:46;;;;;;;8.02;5.45;;;19.90;76.70;;;;;;4971929;28;20030;-84
2022/08/25 05:58:12;;;;;;;7.78;5.22;;;20.00;74.80;;;;;;4988395;28;20132;-82
2022/08/25 06:00:38;;;;;;;10.05;4.85;;;20.10;75.30;;;;;;4986736;28;20050;-83
2022/08/25 06:03:04;;;;;;;9.95;6.38;;;20.20;73.50;;;;;;4962137;28;20052;-82
2022/08/25 06:05:31;;;;;;;9.32;5.95;;;20.30;73.80;;;;;;4986191;28;20409;-82
2022/08/25 06:07:56;;;;;;;12.50;5.22;;;20.40;73.80;;;;;;4958101;28;20502;-83
2022/08/25 06:10:22;;;;;;;10.52;5.57;;;20.50;76.40;;;;;;4962671;28;20049;-82
2022/08/25 06:12:48;;;;;;;12.23;5.82;;;20.60;74.80;;;;;;4980933;28;20057;-83
2022/08/25 06:15:19;;;;;;;7.78;5.18;;;20.80;76.40;;;;;;4949516;28;20066;-84
2022/08/25 06:17:45;;;;;;;5.88;5.22;;;20.90;74.60;;;;;;4977606;28;20544;-84
2022/08/25 06:20:13;;;;;;;7.47;5.15;;;21.00;74.20;;;;;;4964332;28;20175;-83
2022/08/25 06:22:39;;;;;;;7.30;4.65;;;21.10;75.10;;;;;;4972449;28;20033;-82
2022/08/25 06:25:06;;;;;;;5.00;4.55;;;21.30;74.60;;;;;;4945756;28;20037;-83
2022/08/25 06:27:32;;;;;;;12.23;5.30;;;21.50;73.50;;;;;;4967570;28;20034;-83
2022/08/25 06:29:58;;;;;;;10.98;5.75;;;21.50;73.20;;;;;;4968736;28;20042;-84
2022/08/25 06:32:23;;;;;;;8.05;5.20;;;21.60;73.70;;;;;;4983770;28;20029;-84
2022/08/25 06:34:50;;;;;;;11.35;5.10;;;21.70;72.80;;;;;;4970262;28;20422;-84
2022/08/25 06:37:16;;;;;;;9.35;5.45;;;21.80;72.60;;;;;;4967751;28;20474;-84
2022/08/25 06:39:41;;;;;;;7.78;5.45;;;22.00;71.00;;;;;;4983733;28;20040;-83
2022/08/25 06:42:07;;;;;;;6.78;4.30;;;22.10;71.50;;;;;;4977325;28;20031;-83
2022/08/25 06:44:32;;;;;;;4.03;3.55;;;22.10;69.60;;;;;;4981799;28;20030;-83
2022/08/25 06:47:00;;;;;;;6.60;3.60;;;22.30;67.50;;;;;;4959635;28;20034;-84
2022/08/25 06:49:27;;;;;;;6.10;4.80;;;22.40;67.20;;;;;;4947313;28;20081;-84
2022/08/25 06:51:53;;;;;;;7.43;4.65;;;22.60;66.70;;;;;;4966549;28;20084;-84
2022/08/25 06:54:18;;;;;;;7.55;5.50;;;22.70;68.00;;;;;;4963403;28;20026;-82
2022/08/25 06:56:44;;;;;;;7.35;4.53;;;22.90;67.40;;;;;;4954313;28;20141;-82
2022/08/25 06:59:10;;;;;;;7.10;4.90;;;23.00;65.90;;;;;;4971745;28;20584;-83
2022/08/25 07:01:35;;;;;;;7.22;3.83;;;23.20;68.10;;;;;;4959123;28;20023;-82
2022/08/25 07:04:02;;;;;;;5.88;4.18;;;23.30;69.80;;;;;;4976553;28;20088;-80
2022/08/25 07:06:30;;;;;;;6.15;4.65;;;23.50;68.50;;;;;;4963089;28;20150;-81
2022/08/25 07:08:56;;;;;;;6.93;4.85;;;23.60;69.30;;;;;;4967879;28;20100;-81
2022/08/25 07:11:21;;;;;;;6.97;4.63;;;23.70;68.90;;;;;;4945484;28;20030;-81
2022/08/25 07:13:47;;;;;;;6.97;4.57;;;23.90;68.30;;;;;;4962221;28;20431;-82
2022/08/25 07:16:16;;;;;;;5.70;4.53;;;24.00;69.20;;;;;;4963815;28;20338;-81
2022/08/25 07:18:42;;;;;;;4.00;3.50;;;24.10;69.00;;;;;;4960054;28;20490;-82
2022/08/25 07:21:07;;;;;;;5.90;3.95;;;24.10;68.10;;;;;;4976611;28;20127;-82
2022/08/25 07:23:33;;;;;;;9.15;4.70;;;24.20;68.10;;;;;;4966552;28;20132;-81
2022/08/25 07:26:29;;;;;;;6.70;4.00;;;24.40;68.50;;;;;;4959047;28;20045;-81
2022/08/25 07:28:55;;;;;;;8.80;4.10;;;24.60;68.00;;;;;;4966298;28;20469;-82
2022/08/25 07:31:21;;;;;;;6.20;3.90;;;24.70;69.00;;;;;;4957142;28;20460;-82
2022/08/25 07:36:31;;;;;;;9.68;4.55;;;24.90;68.40;;;;;;4968306;28;20393;-82
2022/08/25 07:38:57;;;;;;;8.75;4.20;;;25.10;67.30;;;;;;4966307;28;20034;-81
2022/08/25 07:41:23;;;;;;;5.95;4.47;;;25.30;67.40;;;;;;4956110;28;20042;-82
2022/08/25 07:43:56;;;;;;;4.65;3.60;;;25.30;67.90;;;;;;4976027;28;20112;-83
2022/08/25 07:46:21;;;;;;;6.65;3.72;;;25.50;66.30;;;;;;4970166;28;20026;-82
2022/08/25 07:48:47;;;;;;;5.30;4.28;;;25.70;65.40;;;;;;4963715;28;20355;-82
2022/08/25 07:51:16;;;;;;;15.48;4.30;;;26.10;64.40;;;;;;4956050;28;20191;-82
2022/08/25 07:53:42;;;;;;;6.43;4.65;;;26.10;65.10;;;;;;4978190;28;20037;-82
2022/08/25 07:56:11;;;;;;;7.32;4.80;;;26.10;65.90;;;;;;4964902;28;20027;-82
2022/08/25 07:58:37;;;;;;;8.23;4.75;;;26.10;66.30;;;;;;4966428;28;20096;-82
2022/08/25 08:01:03;;;;;;;7.38;4.13;;;26.20;65.80;;;;;;4969030;28;20517;-82
2022/08/25 08:03:29;;;;;;;8.55;4.25;;;26.50;63.80;;;;;;4978930;28;20034;-82
2022/08/25 08:05:55;;;;;;;5.35;4.25;;;26.60;64.30;;;;;;4967081;28;20351;-82
2022/08/25 08:08:21;;;;;;;6.47;3.80;;;26.80;63.50;;;;;;4938696;28;20479;-81
2022/08/25 08:10:47;;;;;;;9.20;4.75;;;27.00;63.90;;;;;;4964630;28;20497;-81
2022/08/25 08:13:12;;;;;;;9.77;4.82;;;27.20;63.40;;;;;;4967923;28;20076;-84
2022/08/25 08:15:40;;;;;;;6.35;4.95;;;27.00;64.40;;;;;;4965175;28;20022;-84
2022/08/25 08:18:06;;;;;;;7.10;3.92;;;27.10;64.40;;;;;;4947026;28;20065;-83
2022/08/25 08:20:33;;;;;;;4.70;4.15;;;27.40;63.50;;;;;;4944620;28;20114;-83
2022/08/25 08:22:58;;;;;;;6.13;4.63;;;27.30;64.20;;;;;;4965908;28;20452;-84
2022/08/25 08:25:24;;;;;;;5.07;4.20;;;27.30;64.80;;;;;;4980458;28;20030;-84
2022/08/25 08:27:50;;;;;;;5.78;4.57;;;27.90;63.40;;;;;;4976977;28;20399;-83
2022/08/25 08:30:15;;;;;;;4.97;4.20;;;28.00;62.50;;;;;;4950261;28;20030;-84
2022/08/25 08:32:42;;;;;;;5.38;4.75;;;27.90;62.30;;;;;;4969987;28;20036;-84
2022/08/25 08:35:07;;;;;;;9.00;5.03;;;27.80;63.70;;;;;;4968748;28;20622;-83
2022/08/25 08:37:33;;;;;;;14.27;4.35;;;27.90;64.20;;;;;;4978283;28;20037;-84
2022/08/25 08:40:00;;;;;;;6.47;4.05;;;28.00;63.50;;;;;;4948645;28;20087;-84
2022/08/25 08:42:51;;;;;;;5.40;4.05;;;28.50;61.80;;;;;;4954393;28;20092;-85
2022/08/25 08:45:34;;;;;;;9.43;4.85;;;28.70;62.20;;;;;;4966129;28;20489;-85
2022/08/25 08:48:11;;;;;;;9.10;5.32;;;28.70;62.40;;;;;;4961901;28;20389;-85
2022/08/25 08:50:50;;;;;;;5.05;4.18;;;28.60;62.40;;;;;;4983180;28;20034;-84
2022/08/25 08:53:41;;;;;;;8.48;4.60;;;29.00;60.40;;;;;;4959876;28;20443;-84
2022/08/25 08:56:30;;;;;;;4.78;4.20;;;28.80;61.80;;;;;;4991223;28;20060;-85
2022/08/25 08:59:08;;;;;;;7.18;4.97;;;28.80;62.00;;;;;;4965981;28;20039;-85
2022/08/25 09:01:57;;;;;;;6.68;4.45;;;28.90;61.00;;;;;;4970368;28;20037;-85
2022/08/25 09:04:32;;;;;;;7.88;4.22;;;29.10;61.20;;;;;;4968558;28;20085;-85
2022/08/25 09:06:57;;;;;;;8.38;4.00;;;30.00;58.90;;;;;;4985085;28;20588;-84
2022/08/25 09:09:27;;;;;;;4.07;3.70;;;29.70;60.30;;;;;;4976270;28;20034;-86
2022/08/25 09:12:13;;;;;;;6.40;4.75;;;29.70;61.20;;;;;;4971084;28;20026;-87
2022/08/25 09:14:57;;;;;;;9.10;4.60;;;29.50;60.50;;;;;;4984724;28;20033;-86
2022/08/25 09:18:13;;;;;;;5.43;4.60;;;29.80;61.20;;;;;;4983683;28;20113;-87
2022/08/25 09:20:47;;;;;;;4.20;3.58;;;29.90;60.20;;;;;;4889538;29;20432;-85
2022/08/25 09:23:15;;;;;;;8.85;4.35;;;30.50;60.30;;;;;;4990225;28;20486;-86
2022/08/25 09:25:57;;;;;;;4.43;3.97;;;30.60;59.90;;;;;;4983158;28;20077;-86
2022/08/25 09:28:31;;;;;;;7.25;5.13;;;30.80;59.80;;;;;;4953301;28;20087;-86
2022/08/25 09:31:08;;;;;;;4.85;4.35;;;30.40;59.10;;;;;;4984395;28;20401;-87
2022/08/25 09:33:34;;;;;;;7.60;4.55;;;30.50;60.10;;;;;;4984567;28;20121;-86
2022/08/25 09:35:59;;;;;;;7.18;4.60;;;30.60;59.60;;;;;;4968642;28;20112;-86
2022/08/25 09:38:27;;;;;;;6.22;3.60;;;30.90;59.40;;;;;;4957326;28;20069;-87
2022/08/25 09:40:54;;;;;;;6.53;4.13;;;30.90;59.10;;;;;;4964051;28;20038;-83
2022/08/25 09:43:30;;;;;;;8.27;4.65;;;31.50;58.00;;;;;;4947877;28;20409;-83
2022/08/25 09:46:26;;;;;;;10.02;3.65;;;31.20;58.30;;;;;;4982622;28;20030;-83
2022/08/25 09:48:56;;;;;;;5.53;4.30;;;32.20;56.20;;;;;;4962201;28;20555;-83
2022/08/25 09:51:34;;;;;;;6.07;4.32;;;32.40;56.00;;;;;;4968950;28;20440;-84
2022/08/25 09:54:16;;;;;;;8.45;4.95;;;32.60;55.80;;;;;;4968500;28;20068;-85
2022/08/25 09:56:56;;;;;;;5.60;4.78;;;32.00;56.80;;;;;;4980497;28;20030;-85
2022/08/25 09:59:33;;;;;;;13.18;5.07;;;31.70;57.80;;;;;;4964228;28;20034;-85
2022/08/25 10:02:01;;;;;;;7.88;4.90;;;31.80;57.50;;;;;;4972409;28;20038;-83
2022/08/25 10:04:27;;;;;;;5.22;4.50;;;32.30;57.00;;;;;;4967647;28;20038;-83
2022/08/25 10:07:12;;;;;;;7.30;4.20;;;32.40;57.00;;;;;;4962450;28;20038;-84
2022/08/25 10:09:40;;;;;;;4.72;4.32;;;33.00;56.10;;;;;;4936640;28;20124;-84
2022/08/25 10:12:33;;;;;;;5.03;3.88;;;32.50;56.40;;;;;;4942373;28;20045;-85
2022/08/25 10:14:59;;;;;;;7.18;3.72;;;32.60;57.10;;;;;;4952051;28;20225;-86
2022/08/25 10:17:36;;;;;;;4.78;4.20;;;33.20;55.20;;;;;;4959971;28;20493;-86
2022/08/25 10:20:37;;;;;;;8.68;4.20;;;34.70;52.10;;;;;;4981612;28;20037;-86
2022/08/25 10:23:14;;;;;;;6.38;4.78;;;34.70;52.40;;;;;;4951384;28;20092;-87
2022/08/25 10:26:02;;;;;;;7.05;4.10;;;33.60;54.30;;;;;;4948707;28;20169;-87
2022/08/25 10:28:51;;;;;;;6.03;5.03;;;33.60;53.90;;;;;;4967498;28;20042;-87
2022/08/25 10:31:46;;;;;;;5.78;3.80;;;33.60;54.30;;;;;;4972605;28;20138;-88
2022/08/25 10:34:25;;;;;;;5.57;4.35;;;33.90;53.70;;;;;;4968164;28;20502;-88
2022/08/25 10:37:19;;;;;;;5.47;3.72;;;33.50;53.60;;;;;;4984358;28;20478;-88
2022/08/25 10:39:54;;;;;;;5.20;3.72;;;33.30;53.90;;;;;;4969835;28;20384;-87
2022/08/25 10:42:42;;;;;;;7.15;3.42;;;33.90;54.10;;;;;;4991921;28;20026;-86
2022/08/25 10:48:28;;;;;;;5.53;3.95;;;33.80;53.10;;;;;;4288359;28;10001278;-86
2022/08/25 10:51:07;;;;;;;5.97;3.88;;;33.50;53.90;;;;;;4978653;28;20058;-86
2022/08/25 10:54:05;;;;;;;5.95;3.80;;;34.10;53.70;;;;;;4964825;28;20046;-86
2022/08/25 10:56:42;;;;;;;4.70;4.30;;;34.40;52.90;;;;;;4963002;28;20034;-87
2022/08/25 10:59:26;;;;;;;4.32;3.80;;;34.20;53.20;;;;;;4986669;28;20030;-90
2022/08/25 11:02:11;;;;;;;4.20;3.80;;;34.00;53.80;;;;;;4964395;28;20157;-89
2022/08/25 11:04:39;;;;;;;4.85;4.22;;;34.30;52.90;;;;;;5000989;28;20026;-88
2022/08/25 11:07:12;;;;;;;6.18;4.72;;;34.40;51.90;;;;;;5002474;28;20034;-88
2022/08/25 11:09:40;;;;;;;4.32;3.55;;;34.80;51.80;;;;;;4979468;28;20046;-91
2022/08/25 11:12:31;;;;;;;6.13;4.82;;;34.80;51.30;;;;;;4972120;28;20036;-90
2022/08/25 11:14:59;;;;;;;4.78;4.22;;;34.30;50.20;;;;;;4959314;28;20071;-89
2022/08/25 11:17:26;;;;;;;4.70;4.30;;;34.10;51.10;;;;;;4986437;28;20026;-88
2022/08/25 11:19:56;;;;;;;4.70;4.30;;;34.00;50.80;;;;;;4961576;28;20117;-88
2022/08/25 11:22:26;;;;;;;5.53;4.18;;;33.70;50.20;;;;;;4951663;28;20030;-86
2022/08/25 11:25:16;;;;;;;4.88;4.43;;;33.70;50.50;;;;;;4968393;28;20030;-79
2022/08/25 11:27:53;;;;;;;6.28;4.05;;;33.80;50.20;;;;;;4972660;28;20033;-79
2022/08/25 11:30:19;;;;;;;8.52;4.10;;;33.90;50.00;;;;;;4978308;28;20594;-78
2022/08/25 11:32:52;;;;;;;4.35;3.97;;;34.10;49.40;;;;;;4963226;28;20030;-78
2022/08/25 11:35:31;;;;;;;5.32;4.05;;;34.10;49.70;;;;;;4968583;28;20453;-78
2022/08/25 11:38:16;;;;;;;5.75;3.55;;;34.70;50.20;;;;;;4967105;28;20077;-79
2022/08/25 11:41:06;;;;;;;6.38;3.90;;;34.50;49.40;;;;;;4994588;28;20120;-78
2022/08/25 11:43:53;;;;;;;5.40;3.70;;;34.50;48.90;;;;;;4996839;28;20106;-78
2022/08/25 11:46:40;;;;;;;6.80;3.40;;;34.60;47.90;;;;;;4959989;28;20037;-78
2022/08/25 11:49:33;;;;;;;9.00;3.70;;;34.60;49.40;;;;;;4949504;28;20147;-79
2022/08/25 11:51:59;;;;;;;4.35;3.75;;;34.70;46.90;;;;;;4981356;28;20459;-78
2022/08/25 11:54:29;;;;;;;5.78;3.47;;;35.80;47.20;;;;;;4961407;28;20084;-78
2022/08/25 11:57:25;;;;;;;4.32;3.72;;;35.60;47.60;;;;;;4966534;28;20039;-80
2022/08/25 11:59:50;;;;;;;8.93;3.83;;;35.40;47.70;;;;;;4952873;28;20111;-79
2022/08/25 12:02:38;;;;;;;3.63;3.28;;;35.30;47.70;;;;;;4975782;28;20062;-78
2022/08/25 12:05:31;;;;;;;5.07;3.63;;;35.50;48.20;;;;;;4978539;28;20470;-77
2022/08/25 12:11:02;;;;;;;6.45;3.75;;;35.40;48.80;;;;;;4979526;28;20029;-78
2022/08/25 12:13:40;;;;;;;5.32;3.53;;;35.50;47.70;;;;;;4968246;28;20042;-77
2022/08/25 12:16:07;;;;;;;4.18;3.20;;;35.50;48.30;;;;;;4978408;28;20100;-79
2022/08/25 12:18:39;;;;;;;5.68;3.88;;;35.60;48.00;;;;;;4975427;28;20041;-79
2022/08/25 12:21:04;;;;;;;3.00;2.80;;;35.80;48.20;;;;;;4960358;28;20038;-79
2022/08/25 12:23:42;;;;;;;4.82;3.67;;;36.40;46.20;;;;;;4975620;28;20034;-79
2022/08/25 12:26:32;;;;;;;4.07;3.58;;;36.70;47.00;;;;;;4967013;28;20490;-78
2022/08/25 12:29:15;;;;;;;4.20;3.58;;;36.70;47.20;;;;;;4981897;28;20156;-78
2022/08/25 12:31:56;;;;;;;7.28;3.70;;;36.30;47.00;;;;;;4978157;28;20537;-77
2022/08/25 12:34:40;;;;;;;3.13;2.88;;;36.10;47.40;;;;;;4992254;28;20034;-79
2022/08/25 12:37:16;;;;;;;4.28;3.42;;;36.70;46.50;;;;;;4970824;28;20039;-78
2022/08/25 12:40:03;;;;;;;3.60;3.30;;;37.60;45.20;;;;;;4948885;28;20062;-78
2022/08/25 12:42:37;;;;;;;3.22;2.90;;;37.90;44.40;;;;;;4984438;28;20108;-77
2022/08/25 12:45:24;;;;;;;9.02;3.55;;;38.80;41.90;;;;;;4949763;28;20030;-77
2022/08/25 12:47:50;;;;;;;3.25;2.95;;;38.00;43.10;;;;;;4972179;28;20536;-78
2022/08/25 12:50:31;;;;;;;2.83;2.63;;;37.60;44.70;;;;;;4955051;28;20501;-77
2022/08/25 12:53:16;;;;;;;3.00;2.65;;;37.40;45.50;;;;;;4967880;28;20485;-78
2022/08/25 12:56:03;;;;;;;4.75;3.33;;;37.70;44.80;;;;;;4985994;28;20518;-80
2022/08/25 12:58:55;;;;;;;5.35;3.17;;;37.30;44.20;;;;;;4952851;28;20124;-77
2022/08/25 13:01:31;;;;;;;3.13;2.83;;;37.00;44.80;;;;;;4961722;28;20048;-77
2022/08/25 13:04:07;;;;;;;4.72;2.97;;;36.90;44.10;;;;;;4969681;28;20035;-78
2022/08/25 13:06:45;;;;;;;4.22;3.30;;;36.80;44.70;;;;;;4980991;28;20061;-78
2022/08/25 13:09:36;;;;;;;4.28;3.00;;;36.60;43.40;;;;;;4965376;28;20810;-77
2022/08/25 13:12:02;;;;;;;3.90;3.33;;;37.60;43.70;;;;;;4947484;28;20080;-78
2022/08/25 13:14:39;;;;;;;5.00;3.30;;;37.80;43.00;;;;;;4978477;28;20061;-77
2022/08/25 13:17:04;;;;;;;10.85;3.63;;;37.30;43.20;;;;;;4972698;28;20030;-77